Latest Weather Observations for Geelong Racecourse

IDV60901

Issued at 8:21 am EST Monday 25 July 2016 (issued every 10 minutes, with the page automatically refreshed every 10 minutes)

About weather observations | Map of Melbourne area stations | Latest observations for Melbourne area | Other Formats
Station Details ID: 087184 Name: GEELONG RACECOURSE Lat: -38.17 Lon: 144.38 Height: 12.9 m
Data from the previous 72 hours. | See also: Recent months at Geelong Racecourse
Date/Time
EST
Temp
°C
App
Temp
°C
Dew
Point
°C
Rel
Hum
%
Delta-T
°C
Wind Press
QNH
hPa
Press
MSL
hPa
Rain since
9am
mm
Dir  Spd
km/h
Gust
km/h
Spd
kts
Gust
kts
25/08:00am 8.8 4.4 7.6 92 0.6 WNW 20 32 11 17 1007.4 1007.4 0.0
25/07:30am 9.0 4.2 7.3 89 0.8 WNW 22 35 12 19 1006.9 1006.9 0.0
25/07:00am 9.0 4.8 7.3 89 0.8 WNW 19 33 10 18 1006.5 1006.5 0.0
25/06:30am 8.7 4.7 6.7 87 0.9 WNW 17 24 9 13 1005.9 1005.9 0.0
25/06:00am 9.0 3.6 6.3 83 1.2 NW 24 41 13 22 1005.6 1005.6 0.0
25/05:30am 8.7 3.1 5.6 81 1.4 NW 24 37 13 20 1005.2 1005.2 0.0
25/05:00am 8.9 2.2 5.5 79 1.5 WNW 30 46 16 25 1004.4 1004.4 0.0
25/04:30am 8.8 2.1 5.4 79 1.5 WNW 30 48 16 26 1004.2 1004.2 0.0
25/04:26am 8.8 2.4 5.4 79 1.5 NW 28 44 15 24 1004.1 1004.1 0.0
25/04:00am 8.7 4.7 5.1 78 1.6 NW 15 26 8 14 1004.2 1004.2 0.0
25/03:30am 8.3 3.9 4.9 79 1.5 NW 17 28 9 15 1004.1 1004.1 0.0
25/03:00am 8.1 4.1 4.7 79 1.5 NW 15 20 8 11 1004.2 1004.2 0.0
25/02:30am 8.0 4.3 4.6 79 1.5 NNW 13 20 7 11 1004.2 1004.2 0.0
25/02:00am 7.8 4.5 4.4 79 1.5 N 11 17 6 9 1004.1 1004.1 0.0
25/01:30am 8.0 4.3 4.6 79 1.5 N 13 20 7 11 1004.1 1004.1 0.0
25/01:00am 7.8 4.1 4.6 80 1.4 NNW 13 22 7 12 1004.1 1004.1 0.0
25/12:30am 8.1 4.1 4.7 79 1.5 NNW 15 20 8 11 1004.0 1004.0 0.0
25/12:00am 8.2 3.4 4.8 79 1.5 NNW 19 28 10 15 1003.8 1003.8 0.0
 
Date/Time
EST
Temp
°C
App
Temp
°C
Dew
Point
°C
Rel
Hum
%
Delta-T
°C
Wind Press
QNH
hPa
Press
MSL
hPa
Rain since
9am
mm
Dir  Spd
km/h
Gust
km/h
Spd
kts
Gust
kts
24/11:30pm 8.4 4.0 4.8 78 1.6 NNW 17 22 9 12 1004.0 1004.0 0.0
24/11:00pm 8.4 5.1 4.6 77 1.7 NW 11 19 6 10 1003.7 1003.7 0.0
24/10:30pm 8.0 4.8 4.9 81 1.4 NNW 11 19 6 10 1003.7 1003.7 0.0
24/10:00pm 8.2 5.4 5.1 81 1.4 N 9 19 5 10 1003.9 1003.9 0.0
24/09:30pm 8.3 5.6 5.4 82 1.3 N 9 13 5 7 1004.0 1004.0 0.0
24/09:00pm 8.5 5.4 5.4 81 1.4 N 11 15 6 8 1003.9 1003.9 0.0
24/08:30pm 9.1 5.6 5.5 78 1.6 N 13 19 7 10 1004.0 1004.0 0.0
24/08:00pm 9.3 5.2 6.0 80 1.5 N 17 24 9 13 1003.7 1003.7 0.0
24/07:30pm 9.8 5.3 6.0 77 1.8 N 19 30 10 16 1003.7 1003.7 0.0
24/07:00pm 9.3 5.6 6.2 81 1.4 NNE 15 22 8 12 1003.8 1003.8 0.0
24/06:30pm 9.6 6.7 6.7 82 1.4 N 11 17 6 9 1003.8 1003.8 0.0
24/06:00pm 9.2 6.7 6.5 83 1.3 NE 9 15 5 8 1003.6 1003.6 0.0
24/05:30pm 9.8 5.9 5.4 74 2.0 NNE 15 22 8 12 1003.6 1003.6 0.0
24/05:00pm 10.5 6.6 5.5 71 2.3 NNE 15 24 8 13 1003.7 1003.7 0.0
24/04:30pm 10.8 6.4 4.9 67 2.7 N 17 24 9 13 1004.1 1004.1 0.0
24/04:00pm 10.9 6.9 4.8 66 2.8 NNW 15 19 8 10 1004.6 1004.6 0.0
24/03:30pm 10.7 6.5 5.9 72 2.2 NNW 17 32 9 17 1004.9 1004.9 0.0
24/03:00pm 11.3 4.7 4.3 62 3.2 NNW 28 44 15 24 1005.1 1005.1 0.0
24/02:30pm 11.6 5.4 4.3 61 3.3 NNW 26 39 14 21 1005.3 1005.3 0.0
24/02:00pm 11.8 6.8 3.8 58 3.6 NNW 19 33 10 18 1005.5 1005.5 0.0
24/01:30pm 11.7 5.9 4.4 61 3.3 NNW 24 41 13 22 1006.1 1006.1 0.0
24/01:00pm 11.6 5.3 3.9 59 3.4 NNW 26 43 14 23 1006.7 1006.7 0.0
24/12:30pm 11.7 6.2 4.2 60 3.4 NNW 22 35 12 19 1007.0 1007.0 0.0
24/12:00pm 11.6 6.2 4.3 61 3.3 NNW 22 35 12 19 1007.4 1007.4 0.0
24/11:30am 11.8 6.5 4.8 62 3.2 NNW 22 33 12 18 1007.9 1007.9 0.0
24/11:00am 10.9 5.1 4.6 65 2.8 NNW 24 35 13 19 1008.5 1008.5 0.0
24/10:30am 10.2 5.8 5.0 70 2.3 NNW 17 30 9 16 1009.1 1009.1 0.0
24/10:00am 9.3 6.1 5.1 75 1.9 NNW 11 22 6 12 1009.2 1009.2 0.0
24/09:30am 8.4 6.2 5.3 81 1.4 N 6 15 3 8 1009.5 1009.5 0.0
24/09:00am 6.1 3.9 5.1 93 0.4 NNE 6 9 3 5 1009.7 1009.7 0.8
24/08:30am 5.8 3.2 4.4 91 0.6 NNW 7 13 4 7 1009.9 1009.9 0.8
24/08:00am 4.0 1.4 3.0 93 0.4 N 6 7 3 4 1009.8 1009.8 0.8
24/07:30am 3.1 1.4 2.1 93 0.4 CALM 0 0 0 0 1009.8 1009.8 0.8
24/07:00am 3.1 1.1 2.1 93 0.4 NNW 2 4 1 2 1009.8 1009.8 0.8
24/06:30am 3.3 1.7 2.3 93 0.4 CALM 0 2 0 1 1009.9 1009.9 0.8
24/06:00am 3.7 1.0 2.7 93 0.4 N 6 7 3 4 1010.0 1010.0 0.6
24/05:30am 3.8 1.1 2.8 93 0.4 NNW 6 9 3 5 1010.2 1010.2 0.6
24/05:00am 4.0 1.7 3.0 93 0.4 NNW 4 6 2 3 1010.6 1010.6 0.6
24/04:30am 4.7 2.0 3.5 92 0.5 NNW 7 13 4 7 1011.0 1011.0 0.6
24/04:00am 5.0 1.6 3.8 92 0.5 NW 11 15 6 8 1011.3 1011.3 0.6
24/03:30am 4.8 1.4 3.8 93 0.4 NW 11 17 6 9 1011.7 1011.7 0.6
24/03:00am 4.9 2.4 3.9 93 0.4 NW 6 7 3 4 1011.6 1011.6 0.6
24/02:30am 5.8 2.1 4.6 92 0.5 NW 13 19 7 10 1011.8 1011.8 0.6
24/02:00am 5.3 2.0 4.3 93 0.4 NW 11 17 6 9 1011.8 1011.8 0.6
24/01:30am 5.1 1.7 4.1 93 0.4 NW 11 15 6 8 1011.8 1011.8 0.6
24/01:00am 5.0 2.0 4.1 94 0.4 NW 9 13 5 7 1011.8 1011.8 0.6
24/12:30am 4.4 1.9 3.5 94 0.4 NW 6 7 3 4 1012.2 1012.2 0.6
24/12:00am 4.8 2.3 3.9 94 0.4 NW 6 7 3 4 1012.4 1012.4 0.6
 
Date/Time
EST
Temp
°C
App
Temp
°C
Dew
Point
°C
Rel
Hum
%
Delta-T
°C
Wind Press
QNH
hPa
Press
MSL
hPa
Rain since
9am
mm
Dir  Spd
km/h
Gust
km/h
Spd
kts
Gust
kts
23/11:30pm 4.9 2.3 4.0 94 0.4 NW 7 9 4 5 1012.5 1012.5 0.6
23/11:00pm 5.1 2.7 4.2 94 0.4 WNW 6 9 3 5 1012.7 1012.7 0.6
23/10:30pm 5.3 2.9 4.4 94 0.4 WNW 6 9 3 5 1012.7 1012.7 0.6
23/10:00pm 6.0 3.6 5.1 94 0.4 WNW 7 13 4 7 1012.6 1012.6 0.6
23/09:30pm 6.2 1.9 5.2 93 0.4 NW 17 22 9 12 1012.5 1012.5 0.6
23/09:00pm 6.4 2.5 5.4 93 0.4 NW 15 22 8 12 1012.4 1012.4 0.6
23/08:30pm 6.5 3.0 5.5 93 0.4 NW 13 24 7 13 1012.3 1012.3 0.6
23/08:00pm 6.2 2.3 5.2 93 0.4 NW 15 19 8 10 1011.8 1011.8 0.6
23/07:30pm 6.5 2.6 5.5 93 0.4 NW 15 22 8 12 1011.6 1011.6 0.6
23/07:00pm 6.8 3.7 5.7 93 0.5 WNW 11 20 6 11 1011.4 1011.4 0.6
23/06:30pm 6.4 3.7 5.4 93 0.4 WNW 9 15 5 8 1010.9 1010.9 0.6
23/06:00pm 6.7 2.9 5.7 93 0.4 WNW 15 24 8 13 1010.4 1010.4 0.6
23/05:30pm 7.2 3.4 6.0 92 0.5 W 15 24 8 13 1010.4 1010.4 0.6
23/05:00pm 7.4 3.2 5.5 88 0.8 WNW 17 24 9 13 1009.9 1009.9 0.6
23/04:30pm 8.1 3.3 5.7 85 1.1 W 20 32 11 17 1009.4 1009.4 0.6
23/04:00pm 8.4 4.5 7.0 91 0.7 W 17 30 9 16 1009.0 1009.0 0.6
23/03:30pm 8.6 3.3 5.2 79 1.5 W 22 37 12 20 1008.8 1008.8 0.2
23/03:00pm 8.6 3.0 5.4 80 1.4 W 24 37 13 20 1007.9 1007.9 0.2
23/02:45pm 8.3 1.9 5.1 80 1.4 W 28 48 15 26 1007.8 1007.8 0.2
23/02:30pm 9.1 2.2 4.5 73 2.0 W 30 44 16 24 1007.6 1007.6 0.2
23/02:00pm 8.7 1.9 4.9 77 1.7 W 30 46 16 25 1007.1 1007.1 0.2
23/01:56pm 8.9 2.4 4.7 75 1.9 W 28 46 15 25 1007.4 1007.4 0.2
23/01:30pm 8.6 4.7 6.9 89 0.8 WSW 17 24 9 13 1006.9 1006.9 0.2
23/01:08pm 8.1 1.6 4.5 78 1.6 W 28 48 15 26 1007.1 1007.1 0.0
23/01:00pm 10.1 4.8 4.9 70 2.4 W 22 44 12 24 1006.6 1006.6 0.0
23/12:30pm 8.9 1.7 4.9 76 1.8 WNW 32 50 17 27 1006.4 1006.4 0.0
23/12:12pm 10.7 4.1 4.2 64 2.9 W 28 48 15 26 1006.0 1006.0 0.0
23/12:00pm 10.2 4.3 3.9 65 2.8 W 24 39 13 21 1006.2 1006.2 0.0
23/11:30am 10.3 5.7 5.5 72 2.2 WNW 19 32 10 17 1006.3 1006.3 0.0
23/11:00am 8.7 2.0 3.7 71 2.2 W 28 46 15 25 1006.1 1006.1 0.0
23/10:53am 8.3 1.5 3.2 70 2.2 W 28 46 15 25 1006.2 1006.2 0.0
23/10:30am 8.1 1.3 3.2 71 2.1 W 28 39 15 21 1006.0 1006.0 0.0
23/10:00am 8.3 3.0 2.8 68 2.3 WSW 20 33 11 18 1005.3 1005.3 0.0
23/09:30am 8.1 2.3 2.4 67 2.4 W 22 33 12 18 1004.9 1004.9 0.0
23/09:15am 8.2 1.1 1.4 62 2.8 W 28 48 15 26 1004.5 1004.5 0.0
23/09:00am 7.9 2.9 1.3 63 2.7 W 17 26 9 14 1004.2 1004.2 9.2
23/08:30am 7.2 2.2 1.3 66 2.4 W 17 26 9 14 1003.2 1003.2 9.2
23/08:00am 6.7 1.4 1.6 70 2.1 W 19 26 10 14 1002.8 1002.8 9.2
23/07:30am 7.0 2.1 4.0 81 1.3 W 19 33 10 18 1002.5 1002.5 9.2
23/07:00am 7.1 1.6 4.2 82 1.3 W 22 32 12 17 1001.3 1001.3 9.2
23/06:30am 7.0 1.3 4.8 86 1.0 W 24 33 13 18 1000.6 1000.6 9.2
23/06:00am 7.0 1.9 5.9 93 0.5 W 22 33 12 18 999.7 999.7 9.2
23/05:30am 7.3 2.6 6.2 93 0.5 W 20 33 11 18 998.8 998.8 9.2
23/05:00am 7.6 2.2 6.5 93 0.5 W 24 41 13 22 998.2 998.2 8.8
23/04:30am 7.6 2.6 6.5 93 0.5 WNW 22 33 12 18 997.4 997.4 8.6
23/04:00am 7.5 3.4 6.4 93 0.5 WNW 17 28 9 15 996.7 996.7 8.6
23/03:30am 7.8 2.9 6.7 93 0.5 WNW 22 32 12 17 996.3 996.3 8.2
23/03:00am 7.5 2.9 6.4 93 0.5 WNW 20 30 11 16 995.5 995.5 8.2
23/02:30am 8.0 1.6 6.8 92 0.6 W 30 46 16 25 994.9 994.9 8.2
23/02:00am 8.4 0.2 6.5 88 0.9 WNW 39 65 21 35 993.0 993.0 8.2
23/01:55am 8.4 0.3 6.9 90 0.7 WNW 39 59 21 32 992.7 992.7 8.2
23/01:30am 9.0 -0.5 6.8 86 1.0 NW 46 70 25 38 990.7 990.7 8.2
23/01:00am 9.7 1.4 6.1 78 1.7 NW 39 57 21 31 990.8 990.8 8.2
23/12:30am 9.8 2.9 7.4 85 1.1 NW 33 54 18 29 991.4 991.4 8.2
23/12:09am 9.9 4.0 7.3 84 1.2 NW 28 46 15 25 991.6 991.6 8.2
23/12:00am 9.8 4.4 7.9 88 0.9 NW 26 43 14 23 991.9 991.9 8.2
 
Date/Time
EST
Temp
°C
App
Temp
°C
Dew
Point
°C
Rel
Hum
%
Delta-T
°C
Wind Press
QNH
hPa
Press
MSL
hPa
Rain since
9am
mm
Dir  Spd
km/h
Gust
km/h
Spd
kts
Gust
kts
22/11:30pm 9.6 5.5 8.5 93 0.5 NW 20 32 11 17 992.1 992.1 8.2
22/11:00pm 9.0 5.7 7.9 93 0.5 NNW 15 26 8 14 992.4 992.4 8.2
22/10:30pm 9.0 4.9 7.9 93 0.5 NW 19 28 10 15 992.8 992.8 7.8
22/10:00pm 9.7 4.4 8.6 93 0.5 WNW 26 44 14 24 993.4 993.4 7.2
22/09:49pm 9.9 4.3 8.8 93 0.5 NW 28 52 15 28 993.6 993.6 7.0
22/09:40pm 10.1 6.1 9.0 93 0.5 NW 20 37 11 20 993.6 993.6 6.8
22/09:30pm 10.0 8.1 8.9 93 0.5 NNW 9 17 5 9 993.6 993.6 6.4
22/09:00pm 10.3 9.0 9.2 93 0.6 NNW 6 7 3 4 993.6 993.6 6.0
22/08:30pm 10.4 8.9 9.2 92 0.6 WNW 7 13 4 7 993.9 993.9 6.0
22/08:00pm 10.2 7.9 9.1 93 0.5 WNW 11 17 6 9 993.9 993.9 6.0
22/07:30pm 10.1 7.0 9.0 93 0.5 WNW 15 24 8 13 994.3 994.3 6.0
22/07:00pm 10.1 7.0 9.0 93 0.5 NW 15 24 8 13 994.5 994.5 6.0
22/06:30pm 10.3 7.3 9.2 93 0.5 NW 15 22 8 12 994.5 994.5 6.0
22/06:00pm 10.9 7.7 9.8 93 0.6 NW 17 22 9 12 994.5 994.5 6.0
22/05:30pm 11.3 9.0 10.4 94 0.5 WNW 13 20 7 11 994.6 994.6 6.0
22/05:00pm 11.5 8.9 10.6 94 0.5 WNW 15 30 8 16 994.7 994.7 5.8
22/04:30pm 12.6 9.4 11.3 92 0.7 NW 19 26 10 14 994.1 994.1 4.2
22/04:00pm 13.1 9.3 11.0 87 1.1 WNW 22 35 12 19 994.1 994.1 4.2
22/03:30pm 13.3 9.6 11.5 89 1.0 WNW 22 35 12 19 994.2 994.2 4.2
22/03:00pm 13.1 9.9 11.8 92 0.7 NW 20 32 11 17 993.9 993.9 4.2
22/02:30pm 12.5 8.4 11.4 93 0.6 NW 24 33 13 18 994.2 994.2 4.2
22/02:00pm 11.9 8.0 10.8 93 0.6 WNW 22 33 12 18 994.3 994.3 4.2
22/01:30pm 11.0 5.3 9.9 93 0.6 WNW 30 50 16 27 994.9 994.9 3.6
22/01:00pm 14.2 7.3 8.8 70 2.8 WNW 35 70 19 38 995.0 995.0 0.0
22/12:30pm 16.8 10.6 10.0 64 3.6 NW 33 54 18 29 993.7 993.7 0.0
22/12:03pm 16.6 10.9 9.8 64 3.6 NW 30 54 16 29 993.9 993.9 0.0
22/12:00pm 16.7 11.5 10.1 65 3.5 NW 28 43 15 23 994.1 994.1 0.0
22/11:30am 15.8 10.5 9.9 68 3.1 NW 28 44 15 24 994.3 994.3 0.0
22/11:00am 15.6 9.5 9.7 68 3.1 NW 32 46 17 25 994.8 994.8 0.0
22/10:30am 15.3 10.3 10.9 75 2.3 NW 28 44 15 24 995.1 995.1 0.0
22/10:00am 15.3 11.3 11.9 80 1.9 NW 24 35 13 19 995.4 995.4 0.0
22/09:30am 15.3 11.3 11.9 80 1.8 NW 24 39 13 21 995.8 995.8 0.0
22/09:00am 14.9 12.4 13.6 92 0.7 NW 19 28 10 15 995.7 995.7 8.8
22/08:30am 15.0 12.9 13.7 92 0.7 WNW 17 26 9 14 996.0 996.0 8.6

Latest Capital City Observations: Canberra | Sydney | Melbourne | Brisbane | Adelaide | Perth | Hobart | Darwin

Other Formats:

Comma delimited format used in spreadsheet applications
http://www.bom.gov.au/fwo/IDV60901/IDV60901.94857.axf

JavaScript Object Notation format (JSON) in row-major order
http://www.bom.gov.au/fwo/IDV60901/IDV60901.94857.json